createdAt,value
2023-04-20T00:02:15.463Z,8.90
2023-04-20T00:07:37.634Z,8.87
2023-04-20T00:12:59.071Z,9.50
2023-04-20T00:18:20.672Z,9.47
2023-04-20T00:23:42.833Z,9.60
2023-04-20T00:29:04.159Z,9.77
2023-04-20T00:34:25.610Z,9.67
2023-04-20T00:39:47.633Z,10.33
2023-04-20T00:45:09.717Z,9.83
2023-04-20T00:50:32.235Z,9.33
2023-04-20T00:55:53.602Z,9.37
2023-04-20T01:01:17.880Z,10.60
2023-04-20T01:06:41.120Z,10.87
2023-04-20T01:12:02.887Z,11.37
2023-04-20T01:17:24.358Z,10.90
2023-04-20T01:22:47.695Z,10.90
2023-04-20T01:28:09.532Z,10.87
2023-04-20T01:33:31.489Z,11.43
2023-04-20T01:38:53.023Z,11.27
2023-04-20T01:44:15.951Z,10.73
2023-04-20T01:49:37.433Z,11.27
2023-04-20T01:54:58.633Z,10.90
2023-04-20T02:00:20.486Z,10.53
2023-04-20T02:05:41.945Z,9.83
2023-04-20T02:11:03.691Z,9.80
2023-04-20T02:16:25.067Z,10.13
2023-04-20T02:21:46.459Z,8.67
2023-04-20T02:27:08.108Z,7.70
2023-04-20T02:32:29.176Z,7.13
2023-04-20T02:37:51.413Z,7.33
2023-04-20T02:43:16.779Z,7.63
2023-04-20T02:48:38.704Z,6.80
2023-04-20T02:54:00.014Z,7.07
2023-04-20T02:59:23.150Z,6.67
2023-04-20T03:05:08.389Z,6.43
2023-04-20T03:10:37.283Z,7.03
2023-04-20T03:16:12.935Z,7.10
2023-04-20T03:21:38.887Z,7.33
2023-04-20T03:27:00.204Z,7.50
2023-04-20T03:32:32.665Z,6.83
2023-04-20T03:37:56.575Z,7.43
2023-04-20T03:43:18.265Z,8.30
2023-04-20T03:48:39.790Z,7.97
2023-04-20T03:54:01.372Z,8.07
2023-04-20T03:59:23.958Z,7.37
2023-04-20T04:04:45.655Z,9.70
2023-04-20T04:10:07.761Z,9.37
2023-04-20T04:15:29.373Z,8.70
2023-04-20T04:20:58.367Z,9.30
2023-04-20T04:26:24.684Z,9.17
2023-04-20T04:31:47.586Z,9.00
2023-04-20T04:37:14.566Z,8.87
2023-04-20T04:42:42.666Z,8.83
2023-04-20T04:48:08.612Z,9.67
2023-04-20T04:53:30.429Z,9.57
2023-04-20T04:58:51.872Z,9.67
2023-04-20T05:04:13.639Z,10.00
2023-04-20T05:09:35.326Z,10.40
2023-04-20T05:14:56.527Z,11.60
2023-04-20T05:20:17.910Z,11.20
2023-04-20T05:25:39.370Z,12.00
2023-04-20T05:31:01.610Z,12.60
2023-04-20T05:36:22.719Z,12.70
2023-04-20T05:41:44.056Z,12.47
2023-04-20T05:47:08.901Z,13.90
2023-04-20T05:52:30.415Z,13.87
2023-04-20T05:57:52.965Z,12.93
2023-04-20T06:03:14.791Z,13.80
2023-04-20T06:08:36.598Z,14.53
2023-04-20T06:14:01.078Z,11.77
2023-04-20T06:19:22.617Z,11.37
2023-04-20T06:24:44.410Z,11.43
2023-04-20T06:30:06.599Z,12.67
2023-04-20T06:35:28.066Z,10.97
2023-04-20T06:40:49.427Z,12.17
2023-04-20T06:46:11.029Z,10.93
2023-04-20T06:51:33.319Z,9.57
2023-04-20T06:56:54.894Z,10.10
2023-04-20T07:02:16.276Z,9.73
2023-04-20T07:07:38.102Z,10.40
2023-04-20T07:12:59.320Z,8.90
2023-04-20T07:18:21.025Z,8.70
2023-04-20T07:23:44.795Z,8.10
2023-04-20T07:29:06.329Z,9.27
2023-04-20T07:34:27.623Z,9.37
2023-04-20T07:39:49.216Z,9.17
2023-04-20T07:45:12.632Z,8.33
2023-04-20T07:50:33.927Z,9.17
2023-04-20T07:55:55.656Z,9.30
2023-04-20T08:01:17.289Z,9.60
2023-04-20T08:06:38.650Z,10.07
2023-04-20T08:12:00.731Z,10.70
2023-04-20T08:17:22.280Z,11.37
2023-04-20T08:22:43.531Z,11.73
2023-04-20T08:28:08.662Z,11.23
2023-04-20T08:33:30.334Z,12.23
2023-04-20T08:39:06.141Z,12.13
2023-04-20T08:44:27.742Z,11.57
2023-04-20T08:49:52.648Z,11.93
2023-04-20T08:55:20.623Z,12.97
2023-04-20T09:00:49.688Z,10.47
2023-04-20T09:06:18.711Z,9.47
2023-04-20T09:11:41.055Z,5.50
2023-04-20T09:17:05.197Z,8.10
2023-04-20T09:22:34.674Z,8.07
2023-04-20T09:27:57.993Z,8.27
2023-04-20T09:33:19.699Z,9.90
2023-04-20T09:38:41.221Z,10.10
2023-04-20T09:44:02.843Z,9.97
2023-04-20T09:49:25.561Z,10.37
2023-04-20T09:54:47.295Z,9.63
2023-04-20T10:00:12.821Z,10.37
2023-04-20T10:05:39.812Z,9.70
2023-04-20T10:11:01.068Z,9.47
2023-04-20T10:16:23.265Z,9.77
2023-04-20T10:21:51.535Z,9.03
2023-04-20T10:27:22.961Z,9.50
2023-04-20T10:32:44.306Z,10.80
2023-04-20T10:38:07.245Z,11.13
2023-04-20T10:43:28.879Z,11.47
2023-04-20T10:48:55.198Z,9.27
2023-04-20T10:54:18.281Z,11.53
2023-04-20T10:59:42.148Z,11.40
2023-04-20T11:05:12.651Z,12.93
2023-04-20T11:10:42.289Z,12.37
2023-04-20T11:16:14.512Z,13.00
2023-04-20T11:21:41.235Z,8.53
2023-04-20T11:27:04.885Z,13.17
2023-04-20T11:32:27.545Z,13.70
2023-04-20T11:37:53.843Z,13.07
2023-04-20T11:43:15.247Z,12.23
2023-04-20T11:48:36.843Z,13.43
2023-04-20T11:53:58.415Z,12.60
2023-04-20T11:59:21.153Z,12.33
2023-04-20T12:05:03.283Z,12.90
2023-04-20T12:10:28.031Z,13.40
2023-04-20T12:15:58.319Z,12.27
2023-04-20T12:21:37.681Z,13.77
2023-04-20T12:27:23.337Z,14.17
2023-04-20T12:33:07.404Z,14.40
2023-04-20T12:38:50.294Z,14.63
2023-04-20T12:44:17.625Z,16.33
2023-04-20T12:49:40.862Z,15.40
2023-04-20T12:55:02.494Z,15.07
2023-04-20T13:00:24.168Z,14.77
2023-04-20T13:06:06.324Z,16.53
2023-04-20T13:11:33.458Z,17.83
2023-04-20T13:17:08.476Z,18.57
2023-04-20T13:22:57.517Z,18.23
2023-04-20T13:28:23.768Z,18.90
2023-04-20T13:34:06.696Z,18.27
2023-04-20T13:39:30.636Z,20.27
2023-04-20T13:44:52.473Z,20.30
2023-04-20T13:50:14.120Z,19.53
2023-04-20T13:55:35.771Z,19.27
2023-04-20T14:00:57.303Z,19.57
2023-04-20T14:06:37.116Z,19.60
2023-04-20T14:12:23.903Z,21.77
2023-04-20T14:18:03.070Z,21.37
2023-04-20T14:23:32.288Z,21.40
2023-04-20T14:29:02.780Z,21.83
2023-04-20T14:34:29.725Z,21.33
2023-04-20T14:39:51.501Z,23.13
2023-04-20T14:45:14.018Z,21.33
2023-04-20T14:50:35.804Z,22.43
2023-04-20T14:56:17.374Z,21.97
2023-04-20T15:07:42.990Z,23.10
2023-04-20T15:13:21.044Z,23.50
2023-04-20T15:19:03.326Z,24.30
2023-04-20T15:24:31.315Z,25.57
2023-04-20T15:29:54.218Z,23.40
2023-04-20T15:35:15.578Z,24.87
2023-04-20T15:40:38.850Z,25.33
2023-04-20T15:46:31.602Z,24.80
2023-04-20T15:52:13.878Z,24.73
2023-04-20T15:57:46.645Z,26.53
2023-04-20T16:03:35.880Z,25.90
2023-04-20T16:09:13.327Z,24.70
2023-04-20T16:14:36.169Z,23.20
2023-04-20T16:19:57.473Z,23.30
2023-04-20T16:25:23.304Z,22.50
2023-04-20T16:30:45.223Z,24.70
2023-04-20T16:36:26.196Z,22.77
2023-04-20T16:41:48.111Z,23.93
2023-04-20T16:47:24.553Z,24.30
2023-04-20T16:52:57.071Z,23.77
2023-04-20T16:58:31.056Z,23.47
2023-04-20T17:03:59.808Z,22.60
2023-04-20T17:09:22.590Z,23.80
2023-04-20T17:14:43.944Z,23.23
2023-04-20T17:20:07.355Z,22.73
2023-04-20T17:25:31.040Z,22.17
2023-04-20T17:31:11.967Z,22.50
2023-04-20T17:37:06.662Z,23.43
2023-04-20T17:42:57.461Z,23.07
2023-04-20T17:48:31.054Z,24.47
2023-04-20T17:54:02.273Z,23.57
2023-04-20T17:59:31.639Z,24.43
2023-04-20T18:05:04.035Z,24.43
2023-04-20T18:10:29.904Z,22.93
2023-04-20T18:16:07.934Z,24.03
2023-04-20T18:21:55.131Z,23.37
2023-04-20T18:27:30.251Z,24.37
2023-04-20T18:33:11.307Z,24.50
2023-04-20T18:38:38.186Z,24.87
2023-04-20T18:44:07.991Z,24.57
2023-04-20T18:49:36.242Z,24.63
2023-04-20T18:54:58.020Z,24.47
2023-04-20T19:00:19.844Z,24.27
2023-04-20T19:05:57.690Z,25.30
2023-04-20T19:11:31.507Z,25.37
2023-04-20T19:17:15.331Z,26.33
2023-04-20T19:22:53.449Z,25.50
2023-04-20T19:28:37.833Z,25.03
2023-04-20T19:34:13.176Z,26.53
2023-04-20T19:39:44.929Z,25.27
2023-04-20T19:45:07.093Z,25.03
2023-04-20T19:50:32.494Z,23.03
2023-04-20T20:02:11.832Z,24.87
2023-04-20T20:07:34.208Z,23.50
2023-04-20T20:13:03.676Z,24.67
2023-04-20T20:18:45.078Z,24.10
2023-04-20T20:24:13.630Z,23.93
2023-04-20T20:29:35.900Z,22.73
2023-04-20T20:34:57.516Z,22.37
2023-04-20T20:40:19.404Z,21.20
2023-04-20T20:45:41.632Z,21.30
2023-04-20T20:51:30.547Z,22.63
2023-04-20T20:57:20.265Z,20.97
2023-04-20T21:02:52.368Z,21.17
2023-04-20T21:08:13.703Z,19.27
2023-04-20T21:13:53.796Z,19.30
2023-04-20T21:19:21.516Z,19.00
2023-04-20T21:24:43.180Z,20.27
2023-04-20T21:30:05.515Z,18.90
2023-04-20T21:35:31.331Z,20.50
2023-04-20T21:41:06.003Z,20.10
2023-04-20T21:47:02.831Z,18.83
2023-04-20T21:52:48.497Z,19.23
2023-04-20T21:58:24.735Z,19.23
2023-04-20T22:10:06.958Z,18.83
2023-04-20T22:15:30.405Z,16.80
2023-04-20T22:21:04.994Z,16.30
2023-04-20T22:26:48.751Z,16.17
2023-04-20T22:32:30.660Z,15.57
2023-04-20T22:37:59.777Z,15.30
2023-04-20T22:43:33.297Z,16.20
2023-04-20T22:49:03.374Z,16.27
2023-04-20T22:54:25.729Z,17.23
2023-04-20T22:59:48.937Z,15.97
2023-04-20T23:05:33.666Z,15.83
2023-04-20T23:11:21.814Z,16.17
2023-04-20T23:17:01.008Z,14.67
2023-04-20T23:22:52.388Z,14.87
2023-04-20T23:28:28.145Z,15.30
2023-04-20T23:33:58.081Z,14.73
2023-04-20T23:39:26.298Z,14.33
2023-04-20T23:44:48.127Z,14.27
2023-04-20T23:50:09.952Z,14.77
2023-04-20T23:55:32.045Z,15.10
